sensor_id;sensor_type;location;lat;lon;timestamp;pressure;altitude;pressure_sealevel;temperature;humidity
70407;BME280;57821;52.202;0.154;2023-06-10T00:00:56;101498.16;;;15.03;72.00
70407;BME280;57821;52.202;0.154;2023-06-10T00:03:23;101491.31;;;14.96;71.37
70407;BME280;57821;52.202;0.154;2023-06-10T00:05:50;101493.00;;;14.97;72.05
70407;BME280;57821;52.202;0.154;2023-06-10T00:08:17;101488.69;;;14.94;72.13
70407;BME280;57821;52.202;0.154;2023-06-10T00:10:43;101487.00;;;14.89;71.66
70407;BME280;57821;52.202;0.154;2023-06-10T00:13:10;101480.94;;;14.87;72.05
70407;BME280;57821;52.202;0.154;2023-06-10T00:15:37;101485.34;;;14.82;72.23
70407;BME280;57821;52.202;0.154;2023-06-10T00:18:04;101475.81;;;14.79;72.88
70407;BME280;57821;52.202;0.154;2023-06-10T00:20:31;101484.53;;;14.76;72.96
70407;BME280;57821;52.202;0.154;2023-06-10T00:22:58;101481.91;;;14.73;73.09
70407;BME280;57821;52.202;0.154;2023-06-10T00:25:25;101484.56;;;14.70;72.65
70407;BME280;57821;52.202;0.154;2023-06-10T00:27:51;101481.97;;;14.69;73.21
70407;BME280;57821;52.202;0.154;2023-06-10T00:30:18;101471.56;;;14.66;73.03
70407;BME280;57821;52.202;0.154;2023-06-10T00:32:45;101475.94;;;14.64;72.82
70407;BME280;57821;52.202;0.154;2023-06-10T00:35:11;101479.44;;;14.61;73.69
70407;BME280;57821;52.202;0.154;2023-06-10T00:37:38;101479.47;;;14.58;73.60
70407;BME280;57821;52.202;0.154;2023-06-10T00:40:05;101476.00;;;14.56;73.77
70407;BME280;57821;52.202;0.154;2023-06-10T00:42:32;101476.91;;;14.54;73.81
70407;BME280;57821;52.202;0.154;2023-06-10T00:44:59;101475.16;;;14.51;73.52
70407;BME280;57821;52.202;0.154;2023-06-10T00:47:27;101473.44;;;14.50;74.12
70407;BME280;57821;52.202;0.154;2023-06-10T00:49:54;101465.63;;;14.47;73.90
70407;BME280;57821;52.202;0.154;2023-06-10T00:52:27;101470.00;;;14.45;74.81
70407;BME280;57821;52.202;0.154;2023-06-10T00:54:54;101470.91;;;14.43;75.76
70407;BME280;57821;52.202;0.154;2023-06-10T00:57:20;101469.16;;;14.42;74.13
70407;BME280;57821;52.202;0.154;2023-06-10T00:59:48;101474.38;;;14.40;74.46
70407;BME280;57821;52.202;0.154;2023-06-10T01:02:15;101471.78;;;14.38;74.25
70407;BME280;57821;52.202;0.154;2023-06-10T01:04:42;101468.31;;;14.36;75.19
70407;BME280;57821;52.202;0.154;2023-06-10T01:07:28;101470.91;;;14.35;75.72
70407;BME280;57821;52.202;0.154;2023-06-10T01:13:16;101468.34;;;14.30;75.69
70407;BME280;57821;52.202;0.154;2023-06-10T01:15:35;101463.16;;;14.29;75.19
70407;BME280;57821;52.202;0.154;2023-06-10T01:18:04;101464.88;;;14.28;74.84
70407;BME280;57821;52.202;0.154;2023-06-10T01:20:31;101457.06;;;14.27;75.56
70407;BME280;57821;52.202;0.154;2023-06-10T01:23:00;101454.50;;;14.25;75.85
70407;BME280;57821;52.202;0.154;2023-06-10T01:25:27;101457.09;;;14.24;75.39
70407;BME280;57821;52.202;0.154;2023-06-10T01:28:01;101452.78;;;14.18;75.56
70407;BME280;57821;52.202;0.154;2023-06-10T01:30:30;101464.94;;;14.22;75.39
70407;BME280;57821;52.202;0.154;2023-06-10T01:33:00;101457.16;;;14.19;77.34
70407;BME280;57821;52.202;0.154;2023-06-10T01:35:29;101453.66;;;14.19;75.91
70407;BME280;57821;52.202;0.154;2023-06-10T01:37:58;101456.28;;;14.17;75.78
70407;BME280;57821;52.202;0.154;2023-06-10T01:40:25;101458.03;;;14.15;75.81
70407;BME280;57821;52.202;0.154;2023-06-10T01:42:53;101451.97;;;14.15;76.01
70407;BME280;57821;52.202;0.154;2023-06-10T01:45:19;101455.44;;;14.14;76.48
70407;BME280;57821;52.202;0.154;2023-06-10T01:47:46;101453.72;;;14.13;76.12
70407;BME280;57821;52.202;0.154;2023-06-10T01:50:13;101453.72;;;14.13;76.46
70407;BME280;57821;52.202;0.154;2023-06-10T01:52:39;101454.59;;;14.12;76.56
70407;BME280;57821;52.202;0.154;2023-06-10T01:55:06;101448.50;;;14.11;76.72
70407;BME280;57821;52.202;0.154;2023-06-10T01:57:33;101447.63;;;14.11;77.36
70407;BME280;57821;52.202;0.154;2023-06-10T02:00:00;101450.25;;;14.11;77.25
70407;BME280;57821;52.202;0.154;2023-06-10T02:02:26;101450.25;;;14.11;77.01
70407;BME280;57821;52.202;0.154;2023-06-10T02:04:53;101451.09;;;14.10;77.75
70407;BME280;57821;52.202;0.154;2023-06-10T02:07:20;101442.44;;;14.06;78.01
70407;BME280;57821;52.202;0.154;2023-06-10T02:09:46;101452.00;;;14.09;78.32
70407;BME280;57821;52.202;0.154;2023-06-10T02:12:13;101448.50;;;14.10;78.30
70407;BME280;57821;52.202;0.154;2023-06-10T02:14:43;101449.38;;;14.12;77.98
70407;BME280;57821;52.202;0.154;2023-06-10T02:17:10;101445.88;;;14.13;78.54
70407;BME280;57821;52.202;0.154;2023-06-10T02:19:36;101451.97;;;14.15;77.66
70407;BME280;57821;52.202;0.154;2023-06-10T02:22:03;101444.97;;;14.17;78.10
70407;BME280;57821;52.202;0.154;2023-06-10T02:24:30;101442.38;;;14.18;77.50
70407;BME280;57821;52.202;0.154;2023-06-10T02:26:56;101449.31;;;14.19;77.89
70407;BME280;57821;52.202;0.154;2023-06-10T02:29:23;101441.50;;;14.19;78.17
70407;BME280;57821;52.202;0.154;2023-06-10T02:31:49;101443.22;;;14.19;78.11
70407;BME280;57821;52.202;0.154;2023-06-10T02:34:16;101441.50;;;14.18;77.44
70407;BME280;57821;52.202;0.154;2023-06-10T02:36:43;101444.97;;;14.17;77.49
70407;BME280;57821;52.202;0.154;2023-06-10T02:39:10;101443.25;;;14.16;77.58
70407;BME280;57821;52.202;0.154;2023-06-10T02:41:37;101437.19;;;14.14;78.07
70407;BME280;57821;52.202;0.154;2023-06-10T02:44:03;101434.59;;;14.14;77.96
70407;BME280;57821;52.202;0.154;2023-06-10T02:46:30;101440.66;;;14.13;77.99
70407;BME280;57821;52.202;0.154;2023-06-10T02:48:58;101439.81;;;14.12;77.54
70407;BME280;57821;52.202;0.154;2023-06-10T02:51:24;101434.59;;;14.11;78.38
70407;BME280;57821;52.202;0.154;2023-06-10T02:53:56;101440.69;;;14.10;78.47
70407;BME280;57821;52.202;0.154;2023-06-10T02:56:23;101432.03;;;14.09;78.10
70407;BME280;57821;52.202;0.154;2023-06-10T02:58:50;101429.41;;;14.08;78.51
70407;BME280;57821;52.202;0.154;2023-06-10T03:01:17;101425.94;;;14.09;78.63
70407;BME280;57821;52.202;0.154;2023-06-10T03:03:53;101426.81;;;14.09;78.44
70407;BME280;57821;52.202;0.154;2023-06-10T03:06:20;101425.94;;;14.09;78.79
70407;BME280;57821;52.202;0.154;2023-06-10T03:08:46;101426.81;;;14.09;79.07
70407;BME280;57821;52.202;0.154;2023-06-10T03:11:16;101420.72;;;14.09;78.49
70407;BME280;57821;52.202;0.154;2023-06-10T03:13:43;101424.19;;;14.08;78.36
70407;BME280;57821;52.202;0.154;2023-06-10T03:16:13;101419.84;;;14.07;79.09
70407;BME280;57821;52.202;0.154;2023-06-10T03:18:40;101423.34;;;14.04;78.92
70407;BME280;57821;52.202;0.154;2023-06-10T03:21:07;101421.63;;;14.03;78.79
70407;BME280;57821;52.202;0.154;2023-06-10T03:23:35;101416.41;;;14.02;78.27
70407;BME280;57821;52.202;0.154;2023-06-10T03:26:02;101422.50;;;14.01;78.31
70407;BME280;57821;52.202;0.154;2023-06-10T03:28:31;101422.50;;;13.99;78.38
70407;BME280;57821;52.202;0.154;2023-06-10T03:30:57;101423.41;;;13.96;78.90
70407;BME280;57821;52.202;0.154;2023-06-10T03:33:28;101420.81;;;13.96;78.77
70407;BME280;57821;52.202;0.154;2023-06-10T03:35:55;101415.59;;;13.93;79.08
70407;BME280;57821;52.202;0.154;2023-06-10T03:38:23;101415.59;;;13.92;78.60
70407;BME280;57821;52.202;0.154;2023-06-10T03:40:50;101416.50;;;13.91;79.38
70407;BME280;57821;52.202;0.154;2023-06-10T03:43:17;101411.28;;;13.89;78.62
70407;BME280;57821;52.202;0.154;2023-06-10T03:45:43;101414.78;;;13.88;79.51
70407;BME280;57821;52.202;0.154;2023-06-10T03:48:11;101409.59;;;13.85;79.20
70407;BME280;57821;52.202;0.154;2023-06-10T03:50:44;101411.31;;;13.85;79.36
70407;BME280;57821;52.202;0.154;2023-06-10T03:53:11;101414.81;;;13.84;79.33
70407;BME280;57821;52.202;0.154;2023-06-10T03:55:40;101425.22;;;13.84;79.46
70407;BME280;57821;52.202;0.154;2023-06-10T03:58:08;101407.00;;;13.82;79.18
70407;BME280;57821;52.202;0.154;2023-06-10T04:00:34;101407.84;;;13.83;79.14
70407;BME280;57821;52.202;0.154;2023-06-10T04:03:01;101412.19;;;13.82;79.34
70407;BME280;57821;52.202;0.154;2023-06-10T04:05:32;101406.13;;;13.82;79.36
70407;BME280;57821;52.202;0.154;2023-06-10T04:07:59;101401.78;;;13.82;80.09
70407;BME280;57821;52.202;0.154;2023-06-10T04:10:25;101407.00;;;13.82;79.59
70407;BME280;57821;52.202;0.154;2023-06-10T04:12:53;101405.25;;;13.81;80.30
70407;BME280;57821;52.202;0.154;2023-06-10T04:15:22;101402.63;;;13.83;79.56
70407;BME280;57821;52.202;0.154;2023-06-10T04:17:49;101400.03;;;13.81;79.57
70407;BME280;57821;52.202;0.154;2023-06-10T04:20:18;101407.00;;;13.82;79.59
70407;BME280;57821;52.202;0.154;2023-06-10T04:22:47;101400.91;;;13.83;79.64
70407;BME280;57821;52.202;0.154;2023-06-10T04:25:14;101409.59;;;13.84;79.82
70407;BME280;57821;52.202;0.154;2023-06-10T04:27:43;101411.31;;;13.85;79.85
70407;BME280;57821;52.202;0.154;2023-06-10T04:30:10;101408.69;;;13.86;80.38
70407;BME280;57821;52.202;0.154;2023-06-10T04:32:38;101411.28;;;13.89;79.98
70407;BME280;57821;52.202;0.154;2023-06-10T04:35:08;101411.25;;;13.92;80.49
70407;BME280;57821;52.202;0.154;2023-06-10T04:37:38;101415.59;;;13.95;80.06
70407;BME280;57821;52.202;0.154;2023-06-10T04:40:05;101413.84;;;13.95;80.67
70407;BME280;57821;52.202;0.154;2023-06-10T04:42:32;101419.03;;;13.98;80.90
70407;BME280;57821;52.202;0.154;2023-06-10T04:44:59;101421.63;;;14.00;80.29
70407;BME280;57821;52.202;0.154;2023-06-10T04:47:26;101423.38;;;14.03;79.86
70407;BME280;57821;52.202;0.154;2023-06-10T04:49:53;101414.66;;;14.05;80.32
70407;BME280;57821;52.202;0.154;2023-06-10T04:52:20;101416.38;;;14.08;80.71
70407;BME280;57821;52.202;0.154;2023-06-10T04:54:47;101421.56;;;14.12;79.93
70407;BME280;57821;52.202;0.154;2023-06-10T04:57:14;101416.28;;;14.15;80.03
70407;BME280;57821;52.202;0.154;2023-06-10T04:59:41;101418.03;;;14.18;79.93
70407;BME280;57821;52.202;0.154;2023-06-10T05:02:07;101423.19;;;14.22;80.17
70407;BME280;57821;52.202;0.154;2023-06-10T05:04:34;101422.31;;;14.25;79.82
70407;BME280;57821;52.202;0.154;2023-06-10T05:07:00;101423.19;;;14.25;79.78
70407;BME280;57821;52.202;0.154;2023-06-10T05:09:27;101405.75;;;14.29;79.85
70407;BME280;57821;52.202;0.154;2023-06-10T05:11:54;101413.53;;;14.33;80.08
70407;BME280;57821;52.202;0.154;2023-06-10T05:14:20;101409.19;;;14.35;80.01
70407;BME280;57821;52.202;0.154;2023-06-10T05:16:47;101410.03;;;14.39;79.65
70407;BME280;57821;52.202;0.154;2023-06-10T05:19:14;101410.03;;;14.42;80.14
70407;BME280;57821;52.202;0.154;2023-06-10T05:21:41;101411.72;;;14.46;79.77
70407;BME280;57821;52.202;0.154;2023-06-10T05:24:07;101413.41;;;14.50;80.18
70407;BME280;57821;52.202;0.154;2023-06-10T05:26:35;101410.75;;;14.56;80.25
70407;BME280;57821;52.202;0.154;2023-06-10T05:29:01;101415.09;;;14.60;80.19
70407;BME280;57821;52.202;0.154;2023-06-10T05:31:28;101415.91;;;14.64;79.68
70407;BME280;57821;52.202;0.154;2023-06-10T05:33:55;101410.63;;;14.70;79.80
70407;BME280;57821;52.202;0.154;2023-06-10T05:36:21;101415.78;;;14.76;79.98
70407;BME280;57821;52.202;0.154;2023-06-10T05:38:48;101406.16;;;14.83;79.95
70407;BME280;57821;52.202;0.154;2023-06-10T05:41:14;101414.78;;;14.91;79.53
70407;BME280;57821;52.202;0.154;2023-06-10T05:43:41;101410.31;;;14.97;79.67
70407;BME280;57821;52.202;0.154;2023-06-10T05:46:07;101418.06;;;15.05;79.83
70407;BME280;57821;52.202;0.154;2023-06-10T05:48:34;101411.91;;;15.12;79.82
70407;BME280;57821;52.202;0.154;2023-06-10T05:51:01;101417.88;;;15.20;79.87
70407;BME280;57821;52.202;0.154;2023-06-10T05:53:27;101418.66;;;15.27;79.71
70407;BME280;57821;52.202;0.154;2023-06-10T05:55:54;101422.06;;;15.35;79.21
70407;BME280;57821;52.202;0.154;2023-06-10T05:58:20;101425.47;;;15.41;79.28
70407;BME280;57821;52.202;0.154;2023-06-10T06:00:47;101425.38;;;15.47;79.11
70407;BME280;57821;52.202;0.154;2023-06-10T06:03:14;101428.75;;;15.57;79.13
70407;BME280;57821;52.202;0.154;2023-06-10T06:05:40;101429.56;;;15.64;78.84
70407;BME280;57821;52.202;0.154;2023-06-10T06:08:07;101428.59;;;15.71;78.60
70407;BME280;57821;52.202;0.154;2023-06-10T06:10:34;101416.28;;;15.77;79.01
70407;BME280;57821;52.202;0.154;2023-06-10T06:13:01;101420.50;;;15.86;78.58
70407;BME280;57821;52.202;0.154;2023-06-10T06:15:28;101424.69;;;15.96;78.92
70407;BME280;57821;52.202;0.154;2023-06-10T06:17:54;101423.72;;;16.05;78.91
70407;BME280;57821;52.202;0.154;2023-06-10T06:20:22;101419.25;;;16.13;78.47
70407;BME280;57821;52.202;0.154;2023-06-10T06:22:50;101416.47;;;16.20;78.40
70407;BME280;57821;52.202;0.154;2023-06-10T06:25:17;101418.09;;;16.27;78.10
70407;BME280;57821;52.202;0.154;2023-06-10T06:27:47;101413.63;;;16.34;77.82
70407;BME280;57821;52.202;0.154;2023-06-10T06:30:14;101419.63;;;16.40;77.90
70407;BME280;57821;52.202;0.154;2023-06-10T06:32:41;101425.66;;;16.44;77.60
70407;BME280;57821;52.202;0.154;2023-06-10T06:35:07;101421.19;;;16.51;77.57
70407;BME280;57821;52.202;0.154;2023-06-10T06:37:35;101423.72;;;16.55;77.13
70407;BME280;57821;52.202;0.154;2023-06-10T06:40:15;101417.56;;;16.61;77.08
70407;BME280;57821;52.202;0.154;2023-06-10T06:42:42;101422.69;;;16.67;77.37
70407;BME280;57821;52.202;0.154;2023-06-10T06:45:27;101419.03;;;16.77;77.24
70407;BME280;57821;52.202;0.154;2023-06-10T06:47:53;101418.84;;;16.86;77.38
70407;BME280;57821;52.202;0.154;2023-06-10T06:50:20;101421.31;;;16.94;77.11
70407;BME280;57821;52.202;0.154;2023-06-10T06:52:47;101428.97;;;17.03;77.45
70407;BME280;57821;52.202;0.154;2023-06-10T06:55:13;101427.00;;;17.14;77.38
70407;BME280;57821;52.202;0.154;2023-06-10T06:57:40;101430.31;;;17.23;77.14
70407;BME280;57821;52.202;0.154;2023-06-10T07:00:07;101421.38;;;17.34;76.79
70407;BME280;57821;52.202;0.154;2023-06-10T07:02:34;101430.75;;;17.44;76.88
70407;BME280;57821;52.202;0.154;2023-06-10T07:05:01;101430.50;;;17.56;76.35
70407;BME280;57821;52.202;0.154;2023-06-10T07:07:28;101429.44;;;17.66;76.13
70407;BME280;57821;52.202;0.154;2023-06-10T07:09:54;101424.78;;;17.79;75.91
70407;BME280;57821;52.202;0.154;2023-06-10T07:12:21;101420.16;;;17.88;76.03
70407;BME280;57821;52.202;0.154;2023-06-10T07:14:47;101425.13;;;18.00;75.98
70407;BME280;57821;52.202;0.154;2023-06-10T07:17:14;101425.72;;;18.13;74.64
70407;BME280;57821;52.202;0.154;2023-06-10T07:19:41;101428.13;;;18.22;74.83
70407;BME280;57821;52.202;0.154;2023-06-10T07:22:07;101431.34;;;18.33;74.69
70407;BME280;57821;52.202;0.154;2023-06-10T07:24:34;101427.53;;;18.45;74.50
70407;BME280;57821;52.202;0.154;2023-06-10T07:27:00;101433.41;;;18.56;73.46
70407;BME280;57821;52.202;0.154;2023-06-10T07:29:27;101425.28;;;18.65;73.16
70407;BME280;57821;52.202;0.154;2023-06-10T07:31:54;101424.13;;;18.75;73.42
70407;BME280;57821;52.202;0.154;2023-06-10T07:34:20;101428.16;;;18.88;72.76
70407;BME280;57821;52.202;0.154;2023-06-10T07:36:47;101425.19;;;19.01;72.52
70407;BME280;57821;52.202;0.154;2023-06-10T07:39:13;101432.72;;;19.13;72.75
70407;BME280;57821;52.202;0.154;2023-06-10T07:41:40;101426.22;;;19.26;72.93
70407;BME280;57821;52.202;0.154;2023-06-10T07:44:07;101424.16;;;19.37;72.00
70407;BME280;57821;52.202;0.154;2023-06-10T07:46:33;101428.19;;;19.50;71.98
70407;BME280;57821;52.202;0.154;2023-06-10T07:49:00;101426.88;;;19.63;71.25
70407;BME280;57821;52.202;0.154;2023-06-10T07:51:26;101417.84;;;19.72;71.03
70407;BME280;57821;52.202;0.154;2023-06-10T07:53:53;101426.13;;;19.88;71.06
70407;BME280;57821;52.202;0.154;2023-06-10T07:56:20;101423.94;;;20.02;71.10
70407;BME280;57821;52.202;0.154;2023-06-10T07:58:46;101431.28;;;20.19;70.02
70407;BME280;57821;52.202;0.154;2023-06-10T08:01:13;101428.22;;;20.32;70.11
70407;BME280;57821;52.202;0.154;2023-06-10T08:03:39;101428.56;;;20.48;69.27
70407;BME280;57821;52.202;0.154;2023-06-10T08:06:06;101429.91;;;20.60;68.66
70407;BME280;57821;52.202;0.154;2023-06-10T08:08:33;101429.44;;;20.73;68.94
70407;BME280;57821;52.202;0.154;2023-06-10T08:10:59;101435.13;;;20.86;68.59
70407;BME280;57821;52.202;0.154;2023-06-10T08:13:26;101434.63;;;21.00;68.42
70407;BME280;57821;52.202;0.154;2023-06-10T08:15:53;101439.44;;;21.13;68.03
70407;BME280;57821;52.202;0.154;2023-06-10T08:18:19;101430.16;;;21.26;67.71
70407;BME280;57821;52.202;0.154;2023-06-10T08:20:46;101428.72;;;21.41;67.43
70407;BME280;57821;52.202;0.154;2023-06-10T08:23:13;101418.69;;;21.51;66.72
70407;BME280;57821;52.202;0.154;2023-06-10T08:25:40;101425.69;;;21.73;66.65
70407;BME280;57821;52.202;0.154;2023-06-10T08:28:07;101422.53;;;21.87;66.09
70407;BME280;57821;52.202;0.154;2023-06-10T08:30:33;101431.56;;;22.03;65.86
70407;BME280;57821;52.202;0.154;2023-06-10T08:33:00;101429.25;;;22.18;65.38
70407;BME280;57821;52.202;0.154;2023-06-10T08:35:26;101418.94;;;22.32;65.48
70407;BME280;57821;52.202;0.154;2023-06-10T08:37:53;101422.69;;;22.48;65.58
70407;BME280;57821;52.202;0.154;2023-06-10T08:40:21;101418.47;;;22.64;64.41
70407;BME280;57821;52.202;0.154;2023-06-10T08:43:04;101412.53;;;22.79;64.83
70407;BME280;57821;52.202;0.154;2023-06-10T08:45:34;101415.28;;;22.97;64.34
70407;BME280;57821;52.202;0.154;2023-06-10T08:48:03;101416.19;;;23.16;64.07
70407;BME280;57821;52.202;0.154;2023-06-10T08:50:31;101417.19;;;23.32;63.62
70407;BME280;57821;52.202;0.154;2023-06-10T08:52:58;101421.66;;;23.50;63.38
70407;BME280;57821;52.202;0.154;2023-06-10T08:55:34;101419.06;;;23.67;62.76
70407;BME280;57821;52.202;0.154;2023-06-10T08:58:02;101418.25;;;23.84;62.22
70407;BME280;57821;52.202;0.154;2023-06-10T09:00:31;101416.50;;;24.02;62.62
70407;BME280;57821;52.202;0.154;2023-06-10T09:02:58;101413.00;;;24.20;61.86
70407;BME280;57821;52.202;0.154;2023-06-10T09:05:33;101414.72;;;24.38;61.06
70407;BME280;57821;52.202;0.154;2023-06-10T09:08:00;101416.56;;;24.53;60.26
70407;BME280;57821;52.202;0.154;2023-06-10T09:10:27;101425.31;;;24.73;60.22
70407;BME280;57821;52.202;0.154;2023-06-10T09:12:54;101414.69;;;24.90;60.23
70407;BME280;57821;52.202;0.154;2023-06-10T09:15:21;101420.75;;;25.09;59.31
70407;BME280;57821;52.202;0.154;2023-06-10T09:17:47;101420.69;;;25.26;58.36
70407;BME280;57821;52.202;0.154;2023-06-10T09:20:14;101414.47;;;25.43;57.96
70407;BME280;57821;52.202;0.154;2023-06-10T09:22:42;101416.22;;;25.60;57.45
70407;BME280;57821;52.202;0.154;2023-06-10T09:25:10;101411.00;;;25.74;57.55
70407;BME280;57821;52.202;0.154;2023-06-10T09:30:11;101420.69;;;26.21;56.81
70407;BME280;57821;52.202;0.154;2023-06-10T09:32:49;101412.41;;;26.41;55.61
70407;BME280;57821;52.202;0.154;2023-06-10T09:35:16;101418.16;;;26.63;55.88
70407;BME280;57821;52.202;0.154;2023-06-10T09:37:44;101416.13;;;26.82;54.12
70407;BME280;57821;52.202;0.154;2023-06-10T09:40:11;101418.25;;;27.06;51.69
70407;BME280;57821;52.202;0.154;2023-06-10T09:42:38;101421.47;;;27.25;50.99
70407;BME280;57821;52.202;0.154;2023-06-10T09:45:06;101419.34;;;27.44;49.95
70407;BME280;57821;52.202;0.154;2023-06-10T09:47:33;101419.31;;;27.72;50.97
70407;BME280;57821;52.202;0.154;2023-06-10T09:50:00;101417.56;;;28.12;49.48
70407;BME280;57821;52.202;0.154;2023-06-10T09:52:28;101427.31;;;28.53;47.12
70407;BME280;57821;52.202;0.154;2023-06-10T09:55:01;101424.47;;;28.94;46.39
70407;BME280;57821;52.202;0.154;2023-06-10T09:57:32;101419.41;;;29.27;45.08
70407;BME280;57821;52.202;0.154;2023-06-10T09:59:59;101428.09;;;29.67;45.66
70407;BME280;57821;52.202;0.154;2023-06-10T10:02:50;101420.47;;;30.10;44.77
70407;BME280;57821;52.202;0.154;2023-06-10T10:05:21;101411.59;;;30.45;43.48
70407;BME280;57821;52.202;0.154;2023-06-10T10:07:49;101423.38;;;30.88;42.75
70407;BME280;57821;52.202;0.154;2023-06-10T10:10:17;101416.22;;;31.22;42.34
70407;BME280;57821;52.202;0.154;2023-06-10T10:12:51;101421.22;;;31.60;39.09
70407;BME280;57821;52.202;0.154;2023-06-10T10:15:20;101421.66;;;31.76;39.57
70407;BME280;57821;52.202;0.154;2023-06-10T10:18:05;101420.59;;;32.00;39.67
70407;BME280;57821;52.202;0.154;2023-06-10T10:20:33;101412.66;;;32.20;38.88
70407;BME280;57821;52.202;0.154;2023-06-10T10:23:03;101421.16;;;32.46;37.36
70407;BME280;57821;52.202;0.154;2023-06-10T10:25:35;101413.97;;;32.68;38.01
70407;BME280;57821;52.202;0.154;2023-06-10T10:28:08;101410.59;;;32.96;37.02
70407;BME280;57821;52.202;0.154;2023-06-10T10:30:47;101413.16;;;33.28;35.95
70407;BME280;57821;52.202;0.154;2023-06-10T10:33:28;101415.50;;;33.52;35.67
70407;BME280;57821;52.202;0.154;2023-06-10T10:35:57;101406.53;;;33.72;35.70
70407;BME280;57821;52.202;0.154;2023-06-10T10:38:24;101407.66;;;33.98;35.33
70407;BME280;57821;52.202;0.154;2023-06-10T10:40:52;101406.53;;;34.20;33.98
70407;BME280;57821;52.202;0.154;2023-06-10T10:43:19;101404.84;;;34.29;32.75
70407;BME280;57821;52.202;0.154;2023-06-10T10:45:58;101395.22;;;34.36;32.02
70407;BME280;57821;52.202;0.154;2023-06-10T10:48:24;101404.97;;;34.46;32.46
70407;BME280;57821;52.202;0.154;2023-06-10T10:50:56;101406.47;;;34.68;31.92
70407;BME280;57821;52.202;0.154;2023-06-10T10:53:23;101403.34;;;34.82;31.68
70407;BME280;57821;52.202;0.154;2023-06-10T10:56:22;101409.22;;;35.05;31.09
70407;BME280;57821;52.202;0.154;2023-06-10T10:59:03;101399.78;;;35.19;31.23
70407;BME280;57821;52.202;0.154;2023-06-10T11:01:41;101395.91;;;35.31;30.58
70407;BME280;57821;52.202;0.154;2023-06-10T11:04:08;101397.88;;;35.38;30.25
70407;BME280;57821;52.202;0.154;2023-06-10T11:06:35;101402.81;;;35.43;30.07
70407;BME280;57821;52.202;0.154;2023-06-10T11:09:25;101397.50;;;35.51;28.62
70407;BME280;57821;52.202;0.154;2023-06-10T11:11:52;101394.25;;;35.48;29.12
70407;BME280;57821;52.202;0.154;2023-06-10T11:14:29;101400.69;;;35.64;29.41
70407;BME280;57821;52.202;0.154;2023-06-10T11:16:57;101385.38;;;35.82;29.04
70407;BME280;57821;52.202;0.154;2023-06-10T11:19:35;101386.56;;;35.98;28.61
70407;BME280;57821;52.202;0.154;2023-06-10T11:22:06;101395.88;;;36.03;28.37
70407;BME280;57821;52.202;0.154;2023-06-10T11:24:33;101387.63;;;36.05;28.63
70407;BME280;57821;52.202;0.154;2023-06-10T11:27:20;101395.25;;;36.09;27.75
70407;BME280;57821;52.202;0.154;2023-06-10T11:32:30;101389.91;;;36.00;27.30
70407;BME280;57821;52.202;0.154;2023-06-10T11:34:58;101383.75;;;35.90;26.67
70407;BME280;57821;52.202;0.154;2023-06-10T11:37:25;101388.16;;;35.91;26.82
70407;BME280;57821;52.202;0.154;2023-06-10T11:39:53;101394.25;;;35.93;25.99
70407;BME280;57821;52.202;0.154;2023-06-10T11:42:21;101392.25;;;35.95;26.30
70407;BME280;57821;52.202;0.154;2023-06-10T11:44:50;101392.84;;;35.89;27.03
70407;BME280;57821;52.202;0.154;2023-06-10T11:47:17;101381.91;;;35.90;26.50
70407;BME280;57821;52.202;0.154;2023-06-10T11:49:45;101390.88;;;35.91;25.93
70407;BME280;57821;52.202;0.154;2023-06-10T11:52:16;101384.16;;;35.77;26.32
70407;BME280;57821;52.202;0.154;2023-06-10T11:54:53;101374.53;;;35.74;25.96
70407;BME280;57821;52.202;0.154;2023-06-10T11:57:20;101383.91;;;35.70;26.96
70407;BME280;57821;52.202;0.154;2023-06-10T11:59:46;101384.53;;;35.64;25.87
70407;BME280;57821;52.202;0.154;2023-06-10T12:02:17;101376.63;;;35.53;25.55
70407;BME280;57821;52.202;0.154;2023-06-10T12:04:43;101373.59;;;35.38;26.24
70407;BME280;57821;52.202;0.154;2023-06-10T12:07:17;101368.88;;;35.23;25.83
70407;BME280;57821;52.202;0.154;2023-06-10T12:09:43;101378.41;;;35.08;26.17
70407;BME280;57821;52.202;0.154;2023-06-10T12:12:10;101368.28;;;34.92;25.95
70407;BME280;57821;52.202;0.154;2023-06-10T12:14:56;101369.88;;;34.85;26.90
70407;BME280;57821;52.202;0.154;2023-06-10T12:20:00;101362.03;;;34.45;26.62
70407;BME280;57821;52.202;0.154;2023-06-10T12:22:42;101355.28;;;34.21;27.21
70407;BME280;57821;52.202;0.154;2023-06-10T12:25:10;101368.13;;;34.08;27.60
70407;BME280;57821;52.202;0.154;2023-06-10T12:27:39;101359.38;;;33.87;27.95
70407;BME280;57821;52.202;0.154;2023-06-10T12:30:07;101358.34;;;33.59;28.08
70407;BME280;57821;52.202;0.154;2023-06-10T12:32:44;101357.13;;;33.23;28.82
70407;BME280;57821;52.202;0.154;2023-06-10T12:35:12;101366.34;;;32.90;28.91
70407;BME280;57821;52.202;0.154;2023-06-10T12:37:40;101363.31;;;32.63;29.08
70407;BME280;57821;52.202;0.154;2023-06-10T12:40:09;101370.28;;;32.45;28.92
70407;BME280;57821;52.202;0.154;2023-06-10T12:42:37;101359.56;;;32.24;28.73
70407;BME280;57821;52.202;0.154;2023-06-10T12:45:05;101361.34;;;32.14;29.11
70407;BME280;57821;52.202;0.154;2023-06-10T12:47:33;101356.25;;;32.00;29.96
70407;BME280;57821;52.202;0.154;2023-06-10T12:50:01;101354.47;;;31.89;31.11
70407;BME280;57821;52.202;0.154;2023-06-10T12:52:28;101358.50;;;31.84;30.69
70407;BME280;57821;52.202;0.154;2023-06-10T12:54:54;101355.38;;;31.78;30.77
70407;BME280;57821;52.202;0.154;2023-06-10T12:57:21;101356.00;;;31.71;30.28
70407;BME280;57821;52.202;0.154;2023-06-10T12:59:48;101353.25;;;31.61;29.63
70407;BME280;57821;52.202;0.154;2023-06-10T13:02:15;101353.09;;;31.52;30.02
70407;BME280;57821;52.202;0.154;2023-06-10T13:04:46;101357.38;;;31.43;30.27
70407;BME280;57821;52.202;0.154;2023-06-10T13:07:14;101355.22;;;31.37;30.53